sensor_id;sensor_type;location;lat;lon;timestamp;pressure;altitude;pressure_sealevel;temperature;humidity
70468;BME280;57934;51.532;7.684;2023-04-01T00:00:53;98171.53;;;8.35;100.00
70468;BME280;57934;51.532;7.684;2023-04-01T00:03:20;98168.56;;;8.32;100.00
70468;BME280;57934;51.532;7.684;2023-04-01T00:05:49;98163.53;;;8.30;100.00
70468;BME280;57934;51.532;7.684;2023-04-01T00:08:15;98165.34;;;8.30;100.00
70468;BME280;57934;51.532;7.684;2023-04-01T00:10:42;98166.72;;;8.32;100.00
70468;BME280;57934;51.532;7.684;2023-04-01T00:13:08;98169.22;;;8.27;100.00
70468;BME280;57934;51.532;7.684;2023-04-01T00:15:34;98163.78;;;8.29;100.00
70468;BME280;57934;51.532;7.684;2023-04-01T00:18:01;98159.53;;;8.28;100.00
70468;BME280;57934;51.532;7.684;2023-04-01T00:20:28;98165.81;;;8.27;100.00
70468;BME280;57934;51.532;7.684;2023-04-01T00:22:54;98160.56;;;8.27;100.00
70468;BME280;57934;51.532;7.684;2023-04-01T00:25:20;98156.09;;;8.27;100.00
70468;BME280;57934;51.532;7.684;2023-04-01T00:27:46;98168.91;;;8.24;100.00
70468;BME280;57934;51.532;7.684;2023-04-01T00:30:14;98152.34;;;8.23;100.00
70468;BME280;57934;51.532;7.684;2023-04-01T00:32:40;98155.31;;;8.27;100.00
70468;BME280;57934;51.532;7.684;2023-04-01T00:35:07;98156.56;;;8.24;100.00
70468;BME280;57934;51.532;7.684;2023-04-01T00:37:35;98161.47;;;8.21;100.00
70468;BME280;57934;51.532;7.684;2023-04-01T00:40:04;98157.84;;;8.22;100.00
70468;BME280;57934;51.532;7.684;2023-04-01T00:42:31;98156.56;;;8.24;100.00
70468;BME280;57934;51.532;7.684;2023-04-01T00:44:57;98156.56;;;8.24;100.00
70468;BME280;57934;51.532;7.684;2023-04-01T00:47:25;98162.41;;;8.26;100.00
70468;BME280;57934;51.532;7.684;2023-04-01T00:49:53;98156.81;;;8.23;100.00
70468;BME280;57934;51.532;7.684;2023-04-01T00:52:23;98153.06;;;8.19;100.00
70468;BME280;57934;51.532;7.684;2023-04-01T00:54:56;98153.84;;;8.19;100.00
70468;BME280;57934;51.532;7.684;2023-04-01T00:57:29;98160.34;;;8.17;100.00
70468;BME280;57934;51.532;7.684;2023-04-01T00:59:56;98153.50;;;8.16;100.00
70468;BME280;57934;51.532;7.684;2023-04-01T01:02:23;98153.06;;;8.19;100.00
70468;BME280;57934;51.532;7.684;2023-04-01T01:04:50;98159.31;;;8.18;100.00
70468;BME280;57934;51.532;7.684;2023-04-01T01:13:14;98146.88;;;8.13;100.00
70468;BME280;57934;51.532;7.684;2023-04-01T01:15:33;98145.75;;;8.09;100.00
70468;BME280;57934;51.532;7.684;2023-04-01T01:34:22;98130.59;;;8.11;100.00
70468;BME280;57934;51.532;7.684;2023-04-01T01:36:56;98133.09;;;8.06;100.00
70468;BME280;57934;51.532;7.684;2023-04-01T01:39:26;98136.75;;;8.05;100.00
70468;BME280;57934;51.532;7.684;2023-04-01T01:42:02;98129.41;;;8.07;100.00
70468;BME280;57934;51.532;7.684;2023-04-01T01:44:31;98130.91;;;8.03;100.00
70468;BME280;57934;51.532;7.684;2023-04-01T01:47:00;98135.72;;;8.06;100.00
70468;BME280;57934;51.532;7.684;2023-04-01T01:49:27;98133.09;;;8.06;100.00
70468;BME280;57934;51.532;7.684;2023-04-01T01:51:57;98130.25;;;8.07;100.00
70468;BME280;57934;51.532;7.684;2023-04-01T01:54:23;98123.97;;;8.08;100.00
70468;BME280;57934;51.532;7.684;2023-04-01T01:56:55;98122.81;;;8.04;100.00
70468;BME280;57934;51.532;7.684;2023-04-01T01:59:24;98130.25;;;8.07;100.00
70468;BME280;57934;51.532;7.684;2023-04-01T02:01:55;98130.00;;;8.09;100.00
70468;BME280;57934;51.532;7.684;2023-04-01T02:04:22;98133.31;;;8.04;100.00
70468;BME280;57934;51.532;7.684;2023-04-01T02:07:00;98130.69;;;8.04;100.00
70468;BME280;57934;51.532;7.684;2023-04-01T02:09:28;98137.19;;;8.02;100.00
70468;BME280;57934;51.532;7.684;2023-04-01T02:11:58;98133.31;;;8.04;100.00
70468;BME280;57934;51.532;7.684;2023-04-01T02:14:29;98133.00;;;8.01;100.00
70468;BME280;57934;51.532;7.684;2023-04-01T02:17:02;98125.91;;;8.01;100.00
70468;BME280;57934;51.532;7.684;2023-04-01T02:19:39;98127.28;;;8.04;100.00
70468;BME280;57934;51.532;7.684;2023-04-01T02:22:11;98133.09;;;8.06;100.00
70468;BME280;57934;51.532;7.684;2023-04-01T02:24:40;98135.16;;;8.04;100.00
70468;BME280;57934;51.532;7.684;2023-04-01T02:27:09;98134.13;;;8.05;100.00
70468;BME280;57934;51.532;7.684;2023-04-01T02:29:36;98136.16;;;8.03;100.00
70468;BME280;57934;51.532;7.684;2023-04-01T02:32:07;98134.56;;;8.02;100.00
70468;BME280;57934;51.532;7.684;2023-04-01T02:34:34;98133.78;;;8.01;100.00
70468;BME280;57934;51.532;7.684;2023-04-01T02:37:01;98139.81;;;8.02;100.00
70468;BME280;57934;51.532;7.684;2023-04-01T02:39:27;98136.63;;;8.00;100.00
70468;BME280;57934;51.532;7.684;2023-04-01T02:41:54;98138.56;;;8.04;100.00
70468;BME280;57934;51.532;7.684;2023-04-01T02:44:20;98135.94;;;8.04;100.00
70468;BME280;57934;51.532;7.684;2023-04-01T02:46:46;98134.56;;;8.02;100.00
70468;BME280;57934;51.532;7.684;2023-04-01T02:49:12;98137.44;;;8.00;100.00
70468;BME280;57934;51.532;7.684;2023-04-01T02:51:39;98130.38;;;8.01;100.00
70468;BME280;57934;51.532;7.684;2023-04-01T02:54:05;98125.66;;;8.03;100.00
70468;BME280;57934;51.532;7.684;2023-04-01T02:56:31;98124.88;;;8.02;100.00
70468;BME280;57934;51.532;7.684;2023-04-01T02:58:58;98126.94;;;8.00;100.00
70468;BME280;57934;51.532;7.684;2023-04-01T03:01:24;98123.16;;;7.96;100.00
70468;BME280;57934;51.532;7.684;2023-04-01T03:03:50;98122.94;;;7.98;100.00
70468;BME280;57934;51.532;7.684;2023-04-01T03:06:17;98126.81;;;7.95;100.00
70468;BME280;57934;51.532;7.684;2023-04-01T03:08:45;98123.53;;;7.88;100.00
70468;BME280;57934;51.532;7.684;2023-04-01T03:11:11;98124.09;;;7.90;100.00
70468;BME280;57934;51.532;7.684;2023-04-01T03:13:38;98122.28;;;7.91;100.00
70468;BME280;57934;51.532;7.684;2023-04-01T03:16:05;98121.81;;;7.94;100.00
70468;BME280;57934;51.532;7.684;2023-04-01T03:18:31;98121.47;;;7.90;100.00
70468;BME280;57934;51.532;7.684;2023-04-01T03:20:57;98126.84;;;7.83;100.00
70468;BME280;57934;51.532;7.684;2023-04-01T03:23:37;98133.78;;;7.89;100.00
70468;BME280;57934;51.532;7.684;2023-04-01T03:26:03;98130.59;;;7.87;100.00
70468;BME280;57934;51.532;7.684;2023-04-01T03:28:29;98126.13;;;7.88;100.00
70468;BME280;57934;51.532;7.684;2023-04-01T03:30:55;98123.28;;;7.89;100.00
70468;BME280;57934;51.532;7.684;2023-04-01T03:33:21;98130.81;;;7.86;100.00
70468;BME280;57934;51.532;7.684;2023-04-01T03:35:48;98129.00;;;7.86;100.00
70468;BME280;57934;51.532;7.684;2023-04-01T03:38:18;98128.19;;;7.86;100.00
70468;BME280;57934;51.532;7.684;2023-04-01T03:40:45;98129.00;;;7.86;100.00
70468;BME280;57934;51.532;7.684;2023-04-01T03:43:11;98134.47;;;7.85;100.00
70468;BME280;57934;51.532;7.684;2023-04-01T03:45:45;98131.06;;;7.84;100.00
70468;BME280;57934;51.532;7.684;2023-04-01T03:48:14;98137.88;;;7.85;100.00
70468;BME280;57934;51.532;7.684;2023-04-01T03:50:40;98135.72;;;7.82;100.00
70468;BME280;57934;51.532;7.684;2023-04-01T03:53:07;98142.00;;;7.81;100.00
70468;BME280;57934;51.532;7.684;2023-04-01T03:55:36;98139.16;;;7.83;100.00
70468;BME280;57934;51.532;7.684;2023-04-01T03:58:03;98145.53;;;7.87;100.00
70468;BME280;57934;51.532;7.684;2023-04-01T04:00:30;98146.00;;;7.84;100.00
70468;BME280;57934;51.532;7.684;2023-04-01T04:02:56;98138.69;;;7.86;100.00
70468;BME280;57934;51.532;7.684;2023-04-01T04:05:28;98146.53;;;7.86;100.00
70468;BME280;57934;51.532;7.684;2023-04-01T04:07:55;98148.81;;;7.82;100.00
70468;BME280;57934;51.532;7.684;2023-04-01T04:10:21;98144.97;;;7.85;100.00
70468;BME280;57934;51.532;7.684;2023-04-01T04:12:49;98144.16;;;7.84;100.00
70468;BME280;57934;51.532;7.684;2023-04-01T04:15:15;98147.03;;;7.83;100.00
70468;BME280;57934;51.532;7.684;2023-04-01T04:17:41;98154.06;;;7.82;100.00
70468;BME280;57934;51.532;7.684;2023-04-01T04:20:08;98154.91;;;7.83;100.00
70468;BME280;57934;51.532;7.684;2023-04-01T04:22:34;98155.47;;;7.85;100.00
70468;BME280;57934;51.532;7.684;2023-04-01T04:25:04;98157.53;;;7.83;100.00
70468;BME280;57934;51.532;7.684;2023-04-01T04:27:30;98160.16;;;7.83;100.00
70468;BME280;57934;51.532;7.684;2023-04-01T04:30:07;98161.75;;;7.84;100.00
70468;BME280;57934;51.532;7.684;2023-04-01T04:32:34;98161.16;;;7.82;100.00
70468;BME280;57934;51.532;7.684;2023-04-01T04:35:00;98168.91;;;7.88;100.00
70468;BME280;57934;51.532;7.684;2023-04-01T04:37:26;98169.16;;;7.87;100.00
70468;BME280;57934;51.532;7.684;2023-04-01T04:39:52;98162.63;;;7.78;100.00
70468;BME280;57934;51.532;7.684;2023-04-01T04:42:20;98169.47;;;7.79;100.00
70468;BME280;57934;51.532;7.684;2023-04-01T04:44:46;98175.88;;;7.83;100.00
70468;BME280;57934;51.532;7.684;2023-04-01T04:47:12;98172.56;;;7.87;100.00
70468;BME280;57934;51.532;7.684;2023-04-01T04:49:38;98172.34;;;7.89;100.00
70468;BME280;57934;51.532;7.684;2023-04-01T04:52:08;98174.16;;;7.88;100.00
70468;BME280;57934;51.532;7.684;2023-04-01T04:54:34;98176.09;;;7.81;100.00
70468;BME280;57934;51.532;7.684;2023-04-01T04:57:01;98169.03;;;7.82;100.00
70468;BME280;57934;51.532;7.684;2023-04-01T04:59:32;98183.28;;;7.86;100.00
70468;BME280;57934;51.532;7.684;2023-04-01T05:02:03;98174.16;;;7.88;100.00
70468;BME280;57934;51.532;7.684;2023-04-01T05:04:34;98181.81;;;7.90;100.00
70468;BME280;57934;51.532;7.684;2023-04-01T05:07:00;98179.41;;;7.88;100.00
70468;BME280;57934;51.532;7.684;2023-04-01T05:09:26;98187.28;;;7.88;100.00
70468;BME280;57934;51.532;7.684;2023-04-01T05:11:53;98181.25;;;7.88;100.00
70468;BME280;57934;51.532;7.684;2023-04-01T05:14:20;98186.16;;;7.84;100.00
70468;BME280;57934;51.532;7.684;2023-04-01T05:16:54;98181.00;;;7.89;100.00
70468;BME280;57934;51.532;7.684;2023-04-01T05:19:20;98188.88;;;7.89;100.00
70468;BME280;57934;51.532;7.684;2023-04-01T05:21:47;98190.84;;;7.94;100.00
70468;BME280;57934;51.532;7.684;2023-04-01T05:24:13;98189.34;;;7.98;100.00
70468;BME280;57934;51.532;7.684;2023-04-01T05:26:39;98193.81;;;7.98;100.00
70468;BME280;57934;51.532;7.684;2023-04-01T05:29:05;98186.84;;;7.92;100.00
70468;BME280;57934;51.532;7.684;2023-04-01T05:31:32;98192.75;;;7.99;100.00
70468;BME280;57934;51.532;7.684;2023-04-01T05:33:58;98195.53;;;8.04;100.00
70468;BME280;57934;51.532;7.684;2023-04-01T05:36:24;98194.16;;;8.01;100.00
70468;BME280;57934;51.532;7.684;2023-04-01T05:38:54;98197.81;;;8.00;100.00
70468;BME280;57934;51.532;7.684;2023-04-01T05:41:21;98196.53;;;8.03;100.00
70468;BME280;57934;51.532;7.684;2023-04-01T05:43:47;98194.16;;;8.01;100.00
70468;BME280;57934;51.532;7.684;2023-04-01T05:46:52;98202.22;;;8.00;100.00
70468;BME280;57934;51.532;7.684;2023-04-01T05:49:21;98197.44;;;8.08;100.00
70468;BME280;57934;51.532;7.684;2023-04-01T05:51:49;98204.28;;;8.09;100.00
70468;BME280;57934;51.532;7.684;2023-04-01T05:54:15;98211.59;;;8.07;100.00
70468;BME280;57934;51.532;7.684;2023-04-01T05:56:41;98207.38;;;8.06;100.00
70468;BME280;57934;51.532;7.684;2023-04-01T05:59:10;98205.88;;;8.10;100.00
70468;BME280;57934;51.532;7.684;2023-04-01T06:01:37;98203.13;;;8.17;100.00
70468;BME280;57934;51.532;7.684;2023-04-01T06:04:03;98211.03;;;8.29;100.00
70468;BME280;57934;51.532;7.684;2023-04-01T06:06:31;98211.72;;;8.36;100.00
70468;BME280;57934;51.532;7.684;2023-04-01T06:09:19;98215.72;;;8.39;100.00
70468;BME280;57934;51.532;7.684;2023-04-01T06:24:07;98225.63;;;8.48;100.00
70468;BME280;57934;51.532;7.684;2023-04-01T06:27:13;98231.59;;;8.44;100.00
70468;BME280;57934;51.532;7.684;2023-04-01T06:29:28;98240.16;;;8.51;100.00
70468;BME280;57934;51.532;7.684;2023-04-01T06:35:04;98240.44;;;8.66;100.00
70468;BME280;57934;51.532;7.684;2023-04-01T06:52:31;98250.97;;;8.78;100.00
70468;BME280;57934;51.532;7.684;2023-04-01T06:58:25;98254.47;;;8.83;100.00
70468;BME280;57934;51.532;7.684;2023-04-01T07:01:02;98258.22;;;8.88;100.00
70468;BME280;57934;51.532;7.684;2023-04-01T07:06:08;98255.34;;;9.01;100.00
70468;BME280;57934;51.532;7.684;2023-04-01T07:08:42;98250.53;;;9.10;100.00
70468;BME280;57934;51.532;7.684;2023-04-01T07:11:14;98255.59;;;9.28;100.00
70468;BME280;57934;51.532;7.684;2023-04-01T07:14:05;98256.06;;;9.25;100.00
70468;BME280;57934;51.532;7.684;2023-04-01T07:16:54;98243.25;;;9.28;100.00
70468;BME280;57934;51.532;7.684;2023-04-01T07:19:33;98252.97;;;9.28;100.00
70468;BME280;57934;51.532;7.684;2023-04-01T07:22:12;98252.25;;;9.32;100.00
70468;BME280;57934;51.532;7.684;2023-04-01T07:25:07;98255.34;;;9.29;100.00
70468;BME280;57934;51.532;7.684;2023-04-01T07:27:37;98259.28;;;9.27;100.00
70468;BME280;57934;51.532;7.684;2023-04-01T07:30:13;98265.53;;;9.26;100.00
70468;BME280;57934;51.532;7.684;2023-04-01T07:32:45;98268.41;;;9.24;100.00
70468;BME280;57934;51.532;7.684;2023-04-01T07:40:47;98278.94;;;9.24;100.00
70468;BME280;57934;51.532;7.684;2023-04-01T07:43:25;98278.22;;;9.29;100.00
70468;BME280;57934;51.532;7.684;2023-04-01T07:46:26;98284.84;;;9.31;100.00
70468;BME280;57934;51.532;7.684;2023-04-01T07:54:22;98288.75;;;9.29;100.00
70468;BME280;57934;51.532;7.684;2023-04-01T07:57:07;98294.72;;;9.24;100.00
70468;BME280;57934;51.532;7.684;2023-04-01T08:00:00;98283.28;;;9.19;100.00
70468;BME280;57934;51.532;7.684;2023-04-01T08:05:32;98292.22;;;9.18;100.00
70468;BME280;57934;51.532;7.684;2023-04-01T08:14:26;98300.41;;;9.33;100.00
70468;BME280;57934;51.532;7.684;2023-04-01T08:22:38;98311.91;;;9.44;100.00
70468;BME280;57934;51.532;7.684;2023-04-01T08:25:32;98312.09;;;9.54;100.00
70468;BME280;57934;51.532;7.684;2023-04-01T08:28:30;98313.53;;;9.62;100.00
70468;BME280;57934;51.532;7.684;2023-04-01T08:31:05;98320.03;;;9.71;100.00
70468;BME280;57934;51.532;7.684;2023-04-01T08:33:34;98317.19;;;9.89;100.00
70468;BME280;57934;51.532;7.684;2023-04-01T08:36:16;98328.75;;;9.88;100.00
70468;BME280;57934;51.532;7.684;2023-04-01T08:38:55;98323.31;;;9.78;100.00
70468;BME280;57934;51.532;7.684;2023-04-01T08:47:16;98328.53;;;9.61;100.00
70468;BME280;57934;51.532;7.684;2023-04-01T08:50:23;98331.59;;;9.70;100.00
70468;BME280;57934;51.532;7.684;2023-04-01T08:56:23;98336.34;;;9.85;100.00
70468;BME280;57934;51.532;7.684;2023-04-01T09:10:21;98350.78;;;10.27;100.00
70468;BME280;57934;51.532;7.684;2023-04-01T09:27:28;98371.16;;;9.75;100.00
70468;BME280;57934;51.532;7.684;2023-04-01T09:38:28;98378.31;;;9.63;100.00
70468;BME280;57934;51.532;7.684;2023-04-01T09:54:36;98385.97;;;9.64;100.00
70468;BME280;57934;51.532;7.684;2023-04-01T10:06:17;98402.22;;;9.61;100.00
70468;BME280;57934;51.532;7.684;2023-04-01T10:20:56;98423.00;;;9.74;100.00
70468;BME280;57934;51.532;7.684;2023-04-01T10:23:51;98422.34;;;9.67;100.00
70468;BME280;57934;51.532;7.684;2023-04-01T10:29:02;98423.25;;;9.61;100.00
70468;BME280;57934;51.532;7.684;2023-04-01T10:32:05;98427.84;;;9.66;100.00
70468;BME280;57934;51.532;7.684;2023-04-01T10:35:06;98430.38;;;9.61;100.00
70468;BME280;57934;51.532;7.684;2023-04-01T11:14:18;98442.28;;;10.32;100.00
70468;BME280;57934;51.532;7.684;2023-04-01T11:17:16;98446.69;;;10.43;100.00
70468;BME280;57934;51.532;7.684;2023-04-01T11:25:50;98453.88;;;10.65;100.00
70468;BME280;57934;51.532;7.684;2023-04-01T11:31:37;98457.41;;;10.54;100.00
70468;BME280;57934;51.532;7.684;2023-04-01T11:34:32;98462.34;;;10.67;100.00
70468;BME280;57934;51.532;7.684;2023-04-01T11:43:34;98466.38;;;10.41;100.00
70468;BME280;57934;51.532;7.684;2023-04-01T11:46:28;98476.03;;;10.35;100.00
70468;BME280;57934;51.532;7.684;2023-04-01T11:49:05;98477.66;;;10.36;100.00
70468;BME280;57934;51.532;7.684;2023-04-01T11:51:59;98487.06;;;10.32;100.00
70468;BME280;57934;51.532;7.684;2023-04-01T12:05:47;98491.03;;;10.35;100.00
70468;BME280;57934;51.532;7.684;2023-04-01T12:08:39;98495.03;;;10.37;100.00
70468;BME280;57934;51.532;7.684;2023-04-01T12:13:59;98499.59;;;10.42;100.00
70468;BME280;57934;51.532;7.684;2023-04-01T12:16:49;98511.91;;;10.36;100.00
70468;BME280;57934;51.532;7.684;2023-04-01T12:19:40;98509.97;;;10.20;100.00
70468;BME280;57934;51.532;7.684;2023-04-01T12:22:28;98515.34;;;10.25;100.00
70468;BME280;57934;51.532;7.684;2023-04-01T12:36:58;98525.56;;;10.10;100.00
70468;BME280;57934;51.532;7.684;2023-04-01T12:40:06;98531.28;;;10.18;100.00
70468;BME280;57934;51.532;7.684;2023-04-01T12:45:35;98547.53;;;10.27;100.00
70468;BME280;57934;51.532;7.684;2023-04-01T12:48:30;98544.84;;;10.39;100.00
70468;BME280;57934;51.532;7.684;2023-04-01T12:51:29;98548.00;;;10.36;100.00
70468;BME280;57934;51.532;7.684;2023-04-01T12:57:06;98551.47;;;10.53;100.00
70468;BME280;57934;51.532;7.684;2023-04-01T12:59:43;98548.50;;;10.49;100.00
70468;BME280;57934;51.532;7.684;2023-04-01T13:02:16;98557.94;;;10.34;100.00
70468;BME280;57934;51.532;7.684;2023-04-01T13:10:03;98557.38;;;10.20;100.00
70468;BME280;57934;51.532;7.684;2023-04-01T13:15:24;98565.66;;;10.00;100.00
70468;BME280;57934;51.532;7.684;2023-04-01T13:23:34;98562.06;;;9.66;100.00
70468;BME280;57934;51.532;7.684;2023-04-01T13:29:21;98592.84;;;9.65;100.00
70468;BME280;57934;51.532;7.684;2023-04-01T13:34:48;98589.03;;;9.85;100.00
70468;BME280;57934;51.532;7.684;2023-04-01T13:37:36;98591.69;;;9.85;100.00
70468;BME280;57934;51.532;7.684;2023-04-01T13:42:54;98600.38;;;9.85;100.00
70468;BME280;57934;51.532;7.684;2023-04-01T13:45:29;98605.63;;;9.85;100.00
70468;BME280;57934;51.532;7.684;2023-04-01T13:53:53;98605.28;;;9.82;100.00
70468;BME280;57934;51.532;7.684;2023-04-01T13:56:38;98609.53;;;9.83;100.00
70468;BME280;57934;51.532;7.684;2023-04-01T14:27:44;98639.38;;;10.23;100.00
70468;BME280;57934;51.532;7.684;2023-04-01T14:31:23;98641.66;;;10.32;100.00
70468;BME280;57934;51.532;7.684;2023-04-01T14:33:38;98648.66;;;10.49;100.00
70468;BME280;57934;51.532;7.684;2023-04-01T14:39:19;98645.81;;;10.39;100.00
70468;BME280;57934;51.532;7.684;2023-04-01T14:47:54;98658.28;;;10.09;100.00
70468;BME280;57934;51.532;7.684;2023-04-01T14:50:27;98662.63;;;10.03;100.00
70468;BME280;57934;51.532;7.684;2023-04-01T14:53:11;98654.19;;;10.01;100.00
70468;BME280;57934;51.532;7.684;2023-04-01T14:58:08;98672.16;;;10.16;100.00
70468;BME280;57934;51.532;7.684;2023-04-01T15:00:58;98665.63;;;10.30;100.00
70468;BME280;57934;51.532;7.684;2023-04-01T15:03:46;98670.31;;;10.28;100.00
70468;BME280;57934;51.532;7.684;2023-04-01T15:12:30;98697.91;;;10.02;100.00
70468;BME280;57934;51.532;7.684;2023-04-01T15:20:38;98706.38;;;9.80;100.00
70468;BME280;57934;51.532;7.684;2023-04-01T15:41:35;98726.97;;;9.84;100.00
70468;BME280;57934;51.532;7.684;2023-04-01T15:46:56;98730.09;;;10.04;100.00
70468;BME280;57934;51.532;7.684;2023-04-01T16:00:29;98744.72;;;9.88;100.00
70468;BME280;57934;51.532;7.684;2023-04-01T16:03:19;98746.00;;;9.97;100.00
70468;BME280;57934;51.532;7.684;2023-04-01T16:21:03;98767.03;;;9.86;100.00
70468;BME280;57934;51.532;7.684;2023-04-01T16:23:55;98775.34;;;9.71;100.00
70468;BME280;57934;51.532;7.684;2023-04-01T16:26:26;98775.34;;;9.71;100.00
70468;BME280;57934;51.532;7.684;2023-04-01T16:28:58;98779.22;;;9.68;100.00
70468;BME280;57934;51.532;7.684;2023-04-01T16:31:37;98782.53;;;9.64;100.00
70468;BME280;57934;51.532;7.684;2023-04-01T16:37:21;98785.25;;;9.57;100.00
70468;BME280;57934;51.532;7.684;2023-04-01T16:45:15;98793.50;;;9.61;100.00
70468;BME280;57934;51.532;7.684;2023-04-01T16:47:51;98801.50;;;9.54;100.00
70468;BME280;57934;51.532;7.684;2023-04-01T16:50:44;98804.34;;;9.52;100.00
70468;BME280;57934;51.532;7.684;2023-04-01T16:58:36;98820.06;;;9.59;100.00
70468;BME280;57934;51.532;7.684;2023-04-01T17:01:07;98824.97;;;9.55;100.00
70468;BME280;57934;51.532;7.684;2023-04-01T17:03:40;98825.88;;;9.61;100.00
70468;BME280;57934;51.532;7.684;2023-04-01T17:06:11;98825.75;;;9.56;100.00
70468;BME280;57934;51.532;7.684;2023-04-01T17:11:27;98832.34;;;9.47;100.00
70468;BME280;57934;51.532;7.684;2023-04-01T17:14:10;98833.38;;;9.46;100.00
70468;BME280;57934;51.532;7.684;2023-04-01T17:19:27;98843.31;;;9.44;100.00
70468;BME280;57934;51.532;7.684;2023-04-01T17:22:26;98840.13;;;9.42;100.00
70468;BME280;57934;51.532;7.684;2023-04-01T17:57:55;98897.03;;;9.18;100.00
70468;BME280;57934;51.532;7.684;2023-04-01T18:03:54;98904.94;;;9.18;100.00
70468;BME280;57934;51.532;7.684;2023-04-01T18:09:05;98925.72;;;9.19;100.00
70468;BME280;57934;51.532;7.684;2023-04-01T18:11:39;98917.47;;;9.16;100.00
70468;BME280;57934;51.532;7.684;2023-04-01T18:14:32;98914.28;;;9.14;100.00
70468;BME280;57934;51.532;7.684;2023-04-01T18:17:57;98928.88;;;9.10;100.00
70468;BME280;57934;51.532;7.684;2023-04-01T18:20:43;98931.94;;;9.06;100.00
70468;BME280;57934;51.532;7.684;2023-04-01T18:23:44;98939.41;;;9.10;100.00
70468;BME280;57934;51.532;7.684;2023-04-01T18:26:23;98943.19;;;9.14;100.00
70468;BME280;57934;51.532;7.684;2023-04-01T18:31:51;98955.59;;;9.06;100.00
70468;BME280;57934;51.532;7.684;2023-04-01T18:34:50;98959.25;;;9.05;100.00
70468;BME280;57934;51.532;7.684;2023-04-01T18:37:28;98967.34;;;9.04;100.00
70468;BME280;57934;51.532;7.684;2023-04-01T18:40:03;98968.56;;;9.01;100.00
70468;BME280;57934;51.532;7.684;2023-04-01T18:42:57;98976.63;;;9.06;100.00
70468;BME280;57934;51.532;7.684;2023-04-01T18:48:14;98973.97;;;9.13;100.00
70468;BME280;57934;51.532;7.684;2023-04-01T18:50:51;98980.50;;;9.04;100.00
70468;BME280;57934;51.532;7.684;2023-04-01T18:56:13;98996.28;;;9.04;100.00
70468;BME280;57934;51.532;7.684;2023-04-01T18:58:48;99003.13;;;9.05;100.00
70468;BME280;57934;51.532;7.684;2023-04-01T19:01:23;99005.56;;;9.06;100.00
70468;BME280;57934;51.532;7.684;2023-04-01T19:04:15;99009.00;;;9.07;100.00
70468;BME280;57934;51.532;7.684;2023-04-01T19:06:48;99020.13;;;9.09;100.00
70468;BME280;57934;51.532;7.684;2023-04-01T19:17:48;99035.25;;;9.14;100.00
70468;BME280;57934;51.532;7.684;2023-04-01T19:25:42;99043.78;;;9.09;100.00
70468;BME280;57934;51.532;7.684;2023-04-01T19:30:57;99050.41;;;9.12;100.00
70468;BME280;57934;51.532;7.684;2023-04-01T19:33:37;99053.84;;;9.12;100.00
70468;BME280;57934;51.532;7.684;2023-04-01T19:36:11;99063.38;;;9.13;100.00
70468;BME280;57934;51.532;7.684;2023-04-01T19:38:42;99058.91;;;9.14;100.00
70468;BME280;57934;51.532;7.684;2023-04-01T19:44:31;99070.59;;;9.18;100.00
70468;BME280;57934;51.532;7.684;2023-04-01T19:52:35;99090.88;;;9.11;100.00
70468;BME280;57934;51.532;7.684;2023-04-01T20:00:48;99100.41;;;9.05;100.00
70468;BME280;57934;51.532;7.684;2023-04-01T20:16:54;99134.19;;;9.08;100.00
70468;BME280;57934;51.532;7.684;2023-04-01T20:20:01;99130.78;;;9.01;100.00
70468;BME280;57934;51.532;7.684;2023-04-01T20:22:54;99151.19;;;9.05;100.00
70468;BME280;57934;51.532;7.684;2023-04-01T20:25:26;99153.63;;;9.07;100.00
70468;BME280;57934;51.532;7.684;2023-04-01T20:28:00;99160.06;;;9.11;100.00
70468;BME280;57934;51.532;7.684;2023-04-01T20:39:14;99203.78;;;9.05;100.00
70468;BME280;57934;51.532;7.684;2023-04-01T20:42:05;99198.22;;;8.89;100.00
70468;BME280;57934;51.532;7.684;2023-04-01T20:51:05;99227.84;;;8.31;100.00
70468;BME280;57934;51.532;7.684;2023-04-01T20:54:00;99231.09;;;8.13;100.00
70468;BME280;57934;51.532;7.684;2023-04-01T21:05:42;99264.81;;;7.76;100.00
70468;BME280;57934;51.532;7.684;2023-04-01T21:11:03;99273.28;;;7.58;100.00
70468;BME280;57934;51.532;7.684;2023-04-01T21:19:36;99293.63;;;7.50;100.00
70468;BME280;57934;51.532;7.684;2023-04-01T21:22:29;99289.16;;;7.44;100.00
70468;BME280;57934;51.532;7.684;2023-04-01T21:38:36;99333.09;;;7.28;100.00
70468;BME280;57934;51.532;7.684;2023-04-01T22:10:03;99397.50;;;6.75;100.00
70468;BME280;57934;51.532;7.684;2023-04-01T22:17:53;99421.63;;;6.70;100.00
70468;BME280;57934;51.532;7.684;2023-04-01T22:25:38;99440.25;;;6.54;100.00
70468;BME280;57934;51.532;7.684;2023-04-01T22:31:02;99448.19;;;6.45;100.00
70468;BME280;57934;51.532;7.684;2023-04-01T22:33:34;99455.63;;;6.42;100.00
70468;BME280;57934;51.532;7.684;2023-04-01T22:39:01;99472.41;;;6.26;100.00
70468;BME280;57934;51.532;7.684;2023-04-01T22:44:03;99483.22;;;6.23;100.00
70468;BME280;57934;51.532;7.684;2023-04-01T22:49:21;99492.44;;;6.19;100.00
70468;BME280;57934;51.532;7.684;2023-04-01T22:52:00;99499.06;;;6.15;100.00
70468;BME280;57934;51.532;7.684;2023-04-01T22:57:07;99506.63;;;6.10;100.00
70468;BME280;57934;51.532;7.684;2023-04-01T23:02:16;99515.22;;;6.04;100.00
70468;BME280;57934;51.532;7.684;2023-04-01T23:04:50;99523.69;;;6.06;100.00
70468;BME280;57934;51.532;7.684;2023-04-01T23:10:05;99528.84;;;5.99;100.00
70468;BME280;57934;51.532;7.684;2023-04-01T23:12:38;99534.63;;;5.94;100.00
70468;BME280;57934;51.532;7.684;2023-04-01T23:15:12;99535.97;;;5.90;100.00
70468;BME280;57934;51.532;7.684;2023-04-01T23:28:51;99565.09;;;5.72;100.00
70468;BME280;57934;51.532;7.684;2023-04-01T23:31:34;99574.91;;;5.70;100.00
70468;BME280;57934;51.532;7.684;2023-04-01T23:34:24;99580.50;;;5.67;100.00
70468;BME280;57934;51.532;7.684;2023-04-01T23:36:55;99571.03;;;5.66;100.00
70468;BME280;57934;51.532;7.684;2023-04-01T23:42:00;99588.69;;;5.64;100.00
70468;BME280;57934;51.532;7.684;2023-04-01T23:44:29;99598.19;;;5.65;100.00